Terminal Aerodrome Forecast
Issued by NWS Spokane, WA

Home | Current Version | Previous Version | Text Only | Print | Product List | Glossary On
Versions: 1 2 3 4 5 6 7 8 9 10 11 12 13 14
000
FTUS46 KOTX 310527
TAFGEG
TAF
KGEG 310527Z 3106/0106 VRB03KT P6SM FEW100 SCT250
     FM311800 06005KT P6SM FEW150 SCT200
     FM010200 14005KT P6SM SCT130 BKN200=

USA.gov is the U.S. government's official web portal to all federal, state and local government web resources and services.